sensor_id;sensor_type;location;lat;lon;timestamp;P1;durP1;ratioP1;P2;durP2;ratioP2
60700;SDS011;46541;49.894;10.886;2022-10-31T17:16:37;29.17;;;18.17;;
60700;SDS011;46541;49.894;10.886;2022-10-31T17:19:04;28.45;;;17.52;;
60700;SDS011;46541;49.894;10.886;2022-10-31T17:21:31;30.58;;;17.73;;
60700;SDS011;46541;49.894;10.886;2022-10-31T17:23:58;32.00;;;19.27;;
60700;SDS011;46541;49.894;10.886;2022-10-31T17:26:24;29.05;;;17.58;;
60700;SDS011;46541;49.894;10.886;2022-10-31T17:28:51;27.00;;;17.92;;
60700;SDS011;46541;49.894;10.886;2022-10-31T17:33:49;32.03;;;20.02;;
60700;SDS011;46541;49.894;10.886;2022-10-31T17:36:16;29.88;;;18.58;;
60700;SDS011;46541;49.894;10.886;2022-10-31T17:38:43;32.97;;;19.35;;
60700;SDS011;46541;49.894;10.886;2022-10-31T17:41:10;33.72;;;20.70;;
60700;SDS011;46541;49.894;10.886;2022-10-31T17:43:37;32.53;;;21.00;;
60700;SDS011;46541;49.894;10.886;2022-10-31T17:46:04;35.83;;;20.25;;
60700;SDS011;46541;49.894;10.886;2022-10-31T17:48:32;28.77;;;18.88;;
60700;SDS011;46541;49.894;10.886;2022-10-31T17:51:01;32.10;;;18.40;;
60700;SDS011;46541;49.894;10.886;2022-10-31T17:53:30;33.95;;;20.02;;
60700;SDS011;46541;49.894;10.886;2022-10-31T17:56:02;27.33;;;17.67;;
60700;SDS011;46541;49.894;10.886;2022-10-31T17:58:33;35.27;;;18.67;;
60700;SDS011;46541;49.894;10.886;2022-10-31T18:01:06;28.08;;;18.58;;
60700;SDS011;46541;49.894;10.886;2022-10-31T18:03:35;27.58;;;17.77;;
60700;SDS011;46541;49.894;10.886;2022-10-31T18:06:03;24.10;;;15.95;;
60700;SDS011;46541;49.894;10.886;2022-10-31T18:08:31;26.80;;;16.80;;
60700;SDS011;46541;49.894;10.886;2022-10-31T18:11:04;31.80;;;17.75;;
60700;SDS011;46541;49.894;10.886;2022-10-31T18:13:35;23.02;;;17.10;;
60700;SDS011;46541;49.894;10.886;2022-10-31T18:16:06;23.20;;;15.57;;
60700;SDS011;46541;49.894;10.886;2022-10-31T18:18:37;23.63;;;15.07;;
60700;SDS011;46541;49.894;10.886;2022-10-31T18:21:04;24.90;;;15.65;;
60700;SDS011;46541;49.894;10.886;2022-10-31T18:23:31;26.77;;;16.27;;
60700;SDS011;46541;49.894;10.886;2022-10-31T18:25:58;22.20;;;15.25;;
60700;SDS011;46541;49.894;10.886;2022-10-31T18:28:25;24.35;;;15.73;;
60700;SDS011;46541;49.894;10.886;2022-10-31T18:30:51;30.15;;;17.33;;
60700;SDS011;46541;49.894;10.886;2022-10-31T18:33:18;30.98;;;19.95;;
60700;SDS011;46541;49.894;10.886;2022-10-31T18:35:45;27.08;;;18.98;;
60700;SDS011;46541;49.894;10.886;2022-10-31T18:38:12;31.73;;;19.70;;
60700;SDS011;46541;49.894;10.886;2022-10-31T18:40:39;33.40;;;20.10;;
60700;SDS011;46541;49.894;10.886;2022-10-31T18:43:05;29.90;;;19.17;;
60700;SDS011;46541;49.894;10.886;2022-10-31T18:45:32;28.45;;;17.13;;
60700;SDS011;46541;49.894;10.886;2022-10-31T18:48:12;32.40;;;17.67;;
60700;SDS011;46541;49.894;10.886;2022-10-31T18:50:40;26.83;;;17.88;;
60700;SDS011;46541;49.894;10.886;2022-10-31T18:53:07;32.13;;;19.23;;
60700;SDS011;46541;49.894;10.886;2022-10-31T18:55:38;32.03;;;19.92;;
60700;SDS011;46541;49.894;10.886;2022-10-31T18:58:12;33.58;;;20.27;;
60700;SDS011;46541;49.894;10.886;2022-10-31T19:00:39;33.40;;;21.20;;
60700;SDS011;46541;49.894;10.886;2022-10-31T19:03:06;30.10;;;20.60;;
60700;SDS011;46541;49.894;10.886;2022-10-31T19:05:33;33.20;;;21.25;;
60700;SDS011;46541;49.894;10.886;2022-10-31T19:08:00;38.45;;;22.08;;
60700;SDS011;46541;49.894;10.886;2022-10-31T19:10:26;39.78;;;21.75;;
60700;SDS011;46541;49.894;10.886;2022-10-31T19:12:53;44.13;;;22.27;;
60700;SDS011;46541;49.894;10.886;2022-10-31T19:15:20;34.38;;;21.08;;
60700;SDS011;46541;49.894;10.886;2022-10-31T19:17:47;33.85;;;21.70;;
60700;SDS011;46541;49.894;10.886;2022-10-31T19:20:14;33.25;;;22.10;;
60700;SDS011;46541;49.894;10.886;2022-10-31T19:22:41;31.70;;;21.98;;
60700;SDS011;46541;49.894;10.886;2022-10-31T19:25:08;32.30;;;22.92;;
60700;SDS011;46541;49.894;10.886;2022-10-31T19:27:36;32.05;;;22.83;;
60700;SDS011;46541;49.894;10.886;2022-10-31T19:30:04;31.90;;;21.00;;
60700;SDS011;46541;49.894;10.886;2022-10-31T19:32:32;26.55;;;19.20;;
60700;SDS011;46541;49.894;10.886;2022-10-31T19:34:59;30.17;;;18.75;;
60700;SDS011;46541;49.894;10.886;2022-10-31T19:37:25;26.05;;;17.73;;
60700;SDS011;46541;49.894;10.886;2022-10-31T19:39:52;21.35;;;16.17;;
60700;SDS011;46541;49.894;10.886;2022-10-31T19:42:19;20.65;;;16.05;;
60700;SDS011;46541;49.894;10.886;2022-10-31T19:44:46;25.85;;;16.30;;
60700;SDS011;46541;49.894;10.886;2022-10-31T19:47:12;21.80;;;15.50;;
60700;SDS011;46541;49.894;10.886;2022-10-31T19:49:39;21.83;;;16.10;;
60700;SDS011;46541;49.894;10.886;2022-10-31T19:52:06;28.25;;;18.67;;
60700;SDS011;46541;49.894;10.886;2022-10-31T19:54:32;22.15;;;17.33;;
60700;SDS011;46541;49.894;10.886;2022-10-31T19:56:59;28.63;;;19.02;;
60700;SDS011;46541;49.894;10.886;2022-10-31T19:59:26;33.92;;;22.10;;
60700;SDS011;46541;49.894;10.886;2022-10-31T20:01:53;37.53;;;24.33;;
60700;SDS011;46541;49.894;10.886;2022-10-31T20:04:20;35.15;;;24.27;;
60700;SDS011;46541;49.894;10.886;2022-10-31T20:06:47;34.35;;;22.40;;
60700;SDS011;46541;49.894;10.886;2022-10-31T20:09:13;33.38;;;22.58;;
60700;SDS011;46541;49.894;10.886;2022-10-31T20:11:41;38.28;;;23.85;;
60700;SDS011;46541;49.894;10.886;2022-10-31T20:14:12;39.38;;;25.42;;
60700;SDS011;46541;49.894;10.886;2022-10-31T20:16:41;41.00;;;28.08;;
60700;SDS011;46541;49.894;10.886;2022-10-31T20:19:08;49.00;;;28.30;;
60700;SDS011;46541;49.894;10.886;2022-10-31T20:21:36;56.88;;;37.78;;
60700;SDS011;46541;49.894;10.886;2022-10-31T20:24:05;73.30;;;41.33;;
60700;SDS011;46541;49.894;10.886;2022-10-31T20:26:33;99.45;;;30.67;;
60700;SDS011;46541;49.894;10.886;2022-10-31T20:29:00;95.65;;;26.63;;
60700;SDS011;46541;49.894;10.886;2022-10-31T20:31:29;96.15;;;28.10;;
60700;SDS011;46541;49.894;10.886;2022-10-31T20:33:58;74.63;;;28.02;;
60700;SDS011;46541;49.894;10.886;2022-10-31T20:36:25;46.83;;;24.52;;
60700;SDS011;46541;49.894;10.886;2022-10-31T20:38:53;42.33;;;22.70;;
60700;SDS011;46541;49.894;10.886;2022-10-31T20:41:20;37.65;;;19.10;;
60700;SDS011;46541;49.894;10.886;2022-10-31T20:43:47;43.78;;;18.27;;
60700;SDS011;46541;49.894;10.886;2022-10-31T20:46:15;39.75;;;18.27;;
60700;SDS011;46541;49.894;10.886;2022-10-31T20:48:44;49.28;;;20.33;;
60700;SDS011;46541;49.894;10.886;2022-10-31T20:51:12;64.82;;;23.50;;
60700;SDS011;46541;49.894;10.886;2022-10-31T20:53:44;61.55;;;21.90;;
60700;SDS011;46541;49.894;10.886;2022-10-31T20:56:15;60.95;;;21.60;;
60700;SDS011;46541;49.894;10.886;2022-10-31T20:58:44;82.20;;;20.48;;
60700;SDS011;46541;49.894;10.886;2022-10-31T21:01:12;68.85;;;17.90;;
60700;SDS011;46541;49.894;10.886;2022-10-31T21:03:44;73.13;;;16.50;;
60700;SDS011;46541;49.894;10.886;2022-10-31T21:06:11;44.25;;;15.40;;
60700;SDS011;46541;49.894;10.886;2022-10-31T21:08:39;45.28;;;12.65;;
60700;SDS011;46541;49.894;10.886;2022-10-31T21:11:07;40.42;;;13.68;;
60700;SDS011;46541;49.894;10.886;2022-10-31T21:13:40;37.90;;;13.30;;
60700;SDS011;46541;49.894;10.886;2022-10-31T21:16:09;34.83;;;12.93;;
60700;SDS011;46541;49.894;10.886;2022-10-31T21:18:46;30.65;;;12.02;;
60700;SDS011;46541;49.894;10.886;2022-10-31T21:21:18;32.60;;;12.57;;
60700;SDS011;46541;49.894;10.886;2022-10-31T21:23:57;36.22;;;13.80;;
60700;SDS011;46541;49.894;10.886;2022-10-31T21:26:35;30.70;;;13.38;;
60700;SDS011;46541;49.894;10.886;2022-10-31T21:29:05;23.65;;;14.27;;
60700;SDS011;46541;49.894;10.886;2022-10-31T21:31:34;17.52;;;12.65;;
60700;SDS011;46541;49.894;10.886;2022-10-31T21:34:02;29.30;;;14.23;;
60700;SDS011;46541;49.894;10.886;2022-10-31T21:36:29;24.15;;;14.05;;
60700;SDS011;46541;49.894;10.886;2022-10-31T21:38:56;21.73;;;13.70;;
60700;SDS011;46541;49.894;10.886;2022-10-31T21:41:23;22.77;;;14.27;;
60700;SDS011;46541;49.894;10.886;2022-10-31T21:43:51;26.02;;;13.95;;
60700;SDS011;46541;49.894;10.886;2022-10-31T21:46:23;31.17;;;14.75;;
60700;SDS011;46541;49.894;10.886;2022-10-31T21:48:57;38.03;;;14.05;;
60700;SDS011;46541;49.894;10.886;2022-10-31T21:51:27;39.90;;;12.82;;
60700;SDS011;46541;49.894;10.886;2022-10-31T21:53:57;33.13;;;12.43;;
60700;SDS011;46541;49.894;10.886;2022-10-31T21:56:42;20.70;;;12.48;;
60700;SDS011;46541;49.894;10.886;2022-10-31T21:59:10;31.60;;;14.27;;
60700;SDS011;46541;49.894;10.886;2022-10-31T22:01:37;40.15;;;14.82;;
60700;SDS011;46541;49.894;10.886;2022-10-31T22:04:04;33.45;;;15.05;;
60700;SDS011;46541;49.894;10.886;2022-10-31T22:06:31;32.97;;;17.17;;
60700;SDS011;46541;49.894;10.886;2022-10-31T22:08:59;27.67;;;14.75;;
60700;SDS011;46541;49.894;10.886;2022-10-31T22:11:26;33.17;;;16.27;;
60700;SDS011;46541;49.894;10.886;2022-10-31T22:13:53;26.20;;;15.70;;
60700;SDS011;46541;49.894;10.886;2022-10-31T22:16:22;27.05;;;16.13;;
60700;SDS011;46541;49.894;10.886;2022-10-31T22:18:53;25.92;;;15.85;;
60700;SDS011;46541;49.894;10.886;2022-10-31T22:21:22;25.65;;;16.30;;
60700;SDS011;46541;49.894;10.886;2022-10-31T22:23:51;30.75;;;16.05;;
60700;SDS011;46541;49.894;10.886;2022-10-31T22:26:19;33.60;;;17.77;;
60700;SDS011;46541;49.894;10.886;2022-10-31T22:28:48;31.52;;;16.35;;
60700;SDS011;46541;49.894;10.886;2022-10-31T22:31:19;29.30;;;16.77;;
60700;SDS011;46541;49.894;10.886;2022-10-31T22:33:46;31.88;;;16.48;;
60700;SDS011;46541;49.894;10.886;2022-10-31T22:36:15;25.60;;;16.08;;
60700;SDS011;46541;49.894;10.886;2022-10-31T22:38:44;27.20;;;17.92;;
60700;SDS011;46541;49.894;10.886;2022-10-31T22:41:12;26.08;;;16.85;;
60700;SDS011;46541;49.894;10.886;2022-10-31T22:43:50;26.75;;;17.00;;
60700;SDS011;46541;49.894;10.886;2022-10-31T22:46:19;27.40;;;17.50;;
60700;SDS011;46541;49.894;10.886;2022-10-31T22:48:48;24.40;;;17.15;;
60700;SDS011;46541;49.894;10.886;2022-10-31T22:51:22;25.42;;;17.15;;
60700;SDS011;46541;49.894;10.886;2022-10-31T22:53:53;23.80;;;15.15;;
60700;SDS011;46541;49.894;10.886;2022-10-31T22:56:26;26.05;;;16.23;;
60700;SDS011;46541;49.894;10.886;2022-10-31T22:58:54;24.23;;;15.05;;
60700;SDS011;46541;49.894;10.886;2022-10-31T23:01:22;22.02;;;16.35;;
60700;SDS011;46541;49.894;10.886;2022-10-31T23:03:51;24.27;;;16.02;;
60700;SDS011;46541;49.894;10.886;2022-10-31T23:06:19;23.83;;;16.30;;
60700;SDS011;46541;49.894;10.886;2022-10-31T23:08:47;31.25;;;18.08;;
60700;SDS011;46541;49.894;10.886;2022-10-31T23:13:44;24.05;;;15.65;;
60700;SDS011;46541;49.894;10.886;2022-10-31T23:18:58;26.05;;;17.33;;
60700;SDS011;46541;49.894;10.886;2022-10-31T23:21:25;26.77;;;15.57;;
60700;SDS011;46541;49.894;10.886;2022-10-31T23:24:10;29.65;;;18.25;;
60700;SDS011;46541;49.894;10.886;2022-10-31T23:26:39;25.25;;;17.88;;
60700;SDS011;46541;49.894;10.886;2022-10-31T23:29:25;35.75;;;19.05;;
60700;SDS011;46541;49.894;10.886;2022-10-31T23:31:51;25.58;;;17.02;;
60700;SDS011;46541;49.894;10.886;2022-10-31T23:34:22;25.65;;;17.02;;
60700;SDS011;46541;49.894;10.886;2022-10-31T23:36:49;28.77;;;18.58;;
60700;SDS011;46541;49.894;10.886;2022-10-31T23:39:16;24.10;;;16.35;;
60700;SDS011;46541;49.894;10.886;2022-10-31T23:41:49;25.30;;;16.58;;
60700;SDS011;46541;49.894;10.886;2022-10-31T23:44:16;20.05;;;14.27;;
60700;SDS011;46541;49.894;10.886;2022-10-31T23:46:43;20.17;;;14.20;;
60700;SDS011;46541;49.894;10.886;2022-10-31T23:49:10;16.40;;;12.75;;
60700;SDS011;46541;49.894;10.886;2022-10-31T23:51:37;18.08;;;11.57;;
60700;SDS011;46541;49.894;10.886;2022-10-31T23:54:04;15.05;;;12.45;;
60700;SDS011;46541;49.894;10.886;2022-10-31T23:56:31;16.00;;;12.50;;
60700;SDS011;46541;49.894;10.886;2022-10-31T23:58:58;16.80;;;12.20;;
